This is the latest recevied weather packets stored in our database for station/object HA3YA-WX. If no packets are shown the sender has not sent any weather packets the latest 10 day(s).
| Time | Temp. | Humidity | Pressure | Rain* | Wind** | Luminosity | Snow |
|---|---|---|---|---|---|---|---|
| 1788178836 | 34.44° C | 52% | 1001 hPa | - | - | - | - |
| 1788178236 | 33.89° C | 51% | 1001 hPa | - | - | - | - |
| 1788177636 | 32.78° C | 55% | 1001 hPa | - | - | - | - |
| 1788177036 | 31.67° C | 61% | 1001 hPa | - | - | - | - |
| 1788176436 | 32.22° C | 61% | 1001.4 hPa | - | - | - | - |
| 1788176288 | 32.22° C | 61% | 1001.4 hPa | - | - | - | - |
| 1788176092 | 31.67° C | 63% | 1001.4 hPa | - | - | - | - |
| 1788175923 | 31.11° C | 65% | 1001.4 hPa | - | - | - | - |
| 1788175742 | 30.56° C | 66% | 1001.4 hPa | - | - | - | - |
| 1788175395 | 31.11° C | 64% | 1001.4 hPa | - | - | - | - |
| 1788175319 | 31.11° C | 63% | 1001.4 hPa | - | - | - | - |
| 1788163083 | 23.33° C | 81% | 1002.4 hPa | - | - | - | - |
| 1788162483 | 22.78° C | 82% | 1002.4 hPa | - | - | - | - |
| 1788161882 | 22.22° C | 83% | 1002.4 hPa | - | - | - | - |
| 1788161283 | 21.67° C | 84% | 1002.4 hPa | - | - | - | - |
| 1788160682 | 21.67° C | 85% | 1002.4 hPa | - | - | - | - |
| 1788160082 | 21.11° C | 86% | 1002.4 hPa | - | - | - | - |
| 1788159483 | 20.56° C | 87% | 1002.4 hPa | - | - | - | - |
| 1788158883 | 20° C | 87% | 1002.4 hPa | - | - | - | - |
| 1788158283 | 20° C | 89% | 1002.4 hPa | - | - | - | - |
| 1788157683 | 19.44° C | 89% | 1002.4 hPa | - | - | - | - |
| 1788157083 | 18.89° C | 89% | 1002.4 hPa | - | - | - | - |
| 1788156483 | 18.33° C | 89% | 1002.4 hPa | - | - | - | - |
| 1788155883 | 17.78° C | 90% | 1002.4 hPa | - | - | - | - |
| 1788155282 | 17.78° C | 90% | 1002.4 hPa | - | - | - | - |
* Rain since midnight (hover to see other rain measurements)
** Current wind speed in m/s (hover to see current wind gust speed)